Terminal Aerodrome Forecast
Issued by NWS

Home | Current Version | Previous Version | Text Only | Print | Product List | Glossary On
Versions: 1 2 3 4 5 6 7 8 9 10 11 12 13 14 15 16 17 18 19 20 21 22 23 24 25 26 27 28 29 30 31 32 33 34
000
FTUS43 KMQT 201254 AAA
TAFSAW
TAF AMD
KSAW 201254Z 2013/2112 36013G21KT 2SM -SHSN SCT008 OVC014
      TEMPO 2013/2017 1SM -SHSN BLSN BKN008
     FM202200 01010KT 3SM -SHSN BKN018
     FM210600 02004KT 5SM -SHSN BKN017
     FM210900 00000KT P6SM SCT020=

USA.gov is the U.S. government's official web portal to all federal, state and local government web resources and services.